SLVR/VVI METAR and TAF weather

Enter ICAO airport designator
Station Type Date Time Source
SLVR METAR 2020/01/29 03:00 UTC NOAA

SLVR 290300Z 32005KT 9999 SCT070 BKN200 26/23 Q1010


Station Type Date Time Source
SLVR Decoded METAR 2020/01/29 03:00 UTC NOAA

Viru-Viru, Bolivia (SLVR) 17-38S 063-08W
Jan 28, 2020 - 10:00 PM EST / 2020.01.29 0300 UTC
Wind: from the NW (320 degrees) at 6 MPH (5 KT):0
Visibility: greater than 7 mile(s):0
Sky conditions: mostly cloudy
Temperature: 78 F (26 C)
Dew Point: 73 F (23 C)
Relative Humidity: 83%
Pressure (altimeter): 29.83 in. Hg (1010 hPa)
ob: SLVR 290300Z 32005KT 9999 SCT070 BKN200 26/23 Q1010
cycle: 3

Station Type Date Time Source
SLVR TAF 2020/01/28 18:27 UTC NOAA

TAF SLVR 281720Z 2818/2918 34007KT 9999 FEW017 SCT070 TX34/2819Z TN23/2910Z
BECMG 2823/2902 SCT015
TEMPO 2907/2910 BKN010
BECMG 2912/ 2915 34015G25KT SCT017 BKN070

Example: see airport list